createdAt,value
2022-12-19T00:01:32.053Z,101588.09
2022-12-19T00:04:00.995Z,101593.41
2022-12-19T00:06:29.036Z,101589.00
2022-12-19T00:08:58.752Z,101580.97
2022-12-19T00:11:26.005Z,101582.66
2022-12-19T00:13:52.392Z,101589.63
2022-12-19T00:16:24.139Z,101589.13
2022-12-19T00:18:55.416Z,101589.13
2022-12-19T00:21:24.285Z,101568.09
2022-12-19T00:23:50.807Z,101579.53
2022-12-19T00:26:25.028Z,101580.56
2022-12-19T00:28:54.381Z,101573.66
2022-12-19T00:31:22.642Z,101569.91
2022-12-19T00:33:49.600Z,101559.03
2022-12-19T00:36:22.599Z,101557.97
2022-12-19T00:38:51.140Z,101556.28
2022-12-19T00:41:22.987Z,101553.56
2022-12-19T00:43:54.175Z,101556.19
2022-12-19T00:46:21.106Z,101553.47
2022-12-19T00:48:47.595Z,101561.09
2022-12-19T00:51:16.267Z,101548.66
2022-12-19T00:53:44.383Z,101562.25
2022-12-19T00:56:14.046Z,101552.41
2022-12-19T00:58:46.409Z,101562.13
2022-12-19T01:01:21.580Z,101550.34
2022-12-19T01:04:19.102Z,101565.50
2022-12-19T01:06:34.986Z,101546.84
2022-12-19T01:09:01.364Z,101542.50
2022-12-19T01:11:46.360Z,101536.72
2022-12-19T01:14:19.026Z,101531.75
2022-12-19T01:16:48.868Z,101540.31
2022-12-19T01:19:15.162Z,101550.34
2022-12-19T01:21:41.732Z,101537.13
2022-12-19T01:24:09.540Z,101552.66
2022-12-19T01:26:35.893Z,101543.81
2022-12-19T01:29:02.151Z,101545.59
2022-12-19T01:31:28.579Z,101539.38
2022-12-19T01:33:54.974Z,101545.84
2022-12-19T01:36:21.331Z,101545.44
2022-12-19T01:38:47.614Z,101540.00
2022-12-19T01:41:13.909Z,101531.72
2022-12-19T01:44:01.551Z,101539.63
2022-12-19T01:46:47.557Z,101519.00
2022-12-19T01:49:25.118Z,101521.81
2022-12-19T01:51:53.682Z,101515.47
2022-12-19T01:54:24.068Z,101518.69
2022-12-19T01:56:53.446Z,101522.78
2022-12-19T01:59:23.031Z,101516.56
2022-12-19T02:01:55.229Z,101519.66
2022-12-19T02:04:22.476Z,101516.38
2022-12-19T02:06:50.814Z,101519.22
2022-12-19T02:09:17.481Z,101513.91
2022-12-19T02:11:43.839Z,101513.53
2022-12-19T02:14:10.151Z,101504.22
2022-12-19T02:16:36.419Z,101493.59
2022-12-19T02:19:24.569Z,101482.84
2022-12-19T02:22:03.139Z,101505.41
2022-12-19T02:24:47.877Z,101503.59
2022-12-19T02:27:40.334Z,101508.75
2022-12-19T02:30:11.047Z,101497.09
2022-12-19T02:32:49.750Z,101498.13
2022-12-19T02:35:31.007Z,101496.28
2022-12-19T02:38:23.883Z,101470.22
2022-12-19T02:41:01.496Z,101476.66
2022-12-19T02:43:32.319Z,101478.59
2022-12-19T02:46:01.509Z,101480.06
2022-12-19T02:48:29.189Z,101479.94
2022-12-19T02:50:55.543Z,101474.69
2022-12-19T02:53:23.547Z,101482.16
2022-12-19T02:56:09.463Z,101473.47
2022-12-19T02:58:59.398Z,101474.25
2022-12-19T03:01:38.171Z,101473.22
2022-12-19T03:04:31.729Z,101471.97
2022-12-19T03:07:28.656Z,101460.00
2022-12-19T03:10:03.001Z,101466.34
2022-12-19T03:12:51.140Z,101475.09
2022-12-19T03:15:18.701Z,101468.66
2022-12-19T03:17:45.665Z,101473.84
2022-12-19T03:20:31.784Z,101466.75
2022-12-19T03:22:58.089Z,101466.66
2022-12-19T03:25:25.962Z,101465.19
2022-12-19T03:27:54.700Z,101472.50
2022-12-19T03:30:21.697Z,101467.97
2022-12-19T03:32:49.318Z,101479.50
2022-12-19T03:35:21.729Z,101481.84
2022-12-19T03:37:52.060Z,101476.91
2022-12-19T03:40:24.618Z,101480.19
2022-12-19T03:43:09.649Z,101477.34
2022-12-19T03:46:06.457Z,101470.13
2022-12-19T03:48:43.211Z,101465.16
2022-12-19T03:51:28.335Z,101476.81
2022-12-19T03:54:03.118Z,101468.34
2022-12-19T03:56:44.573Z,101458.88
2022-12-19T03:59:29.853Z,101466.22
2022-12-19T04:01:58.167Z,101455.50
2022-12-19T04:04:27.029Z,101459.88
2022-12-19T04:06:54.638Z,101453.34
2022-12-19T04:09:23.622Z,101452.91
2022-12-19T04:12:00.184Z,101457.88
2022-12-19T04:14:38.127Z,101449.66
2022-12-19T04:17:15.791Z,101448.06
2022-12-19T04:19:53.655Z,101446.91
2022-12-19T04:22:29.740Z,101441.78
2022-12-19T04:24:59.175Z,101437.59
2022-12-19T04:27:30.451Z,101427.47
2022-12-19T04:29:59.097Z,101413.69
2022-12-19T04:32:27.103Z,101414.91
2022-12-19T04:34:53.451Z,101420.44
2022-12-19T04:37:20.074Z,101426.44
2022-12-19T04:39:46.537Z,101432.41
2022-12-19T04:42:12.895Z,101425.44
2022-12-19T04:44:39.216Z,101429.53
2022-12-19T04:47:05.571Z,101413.03
2022-12-19T04:49:31.838Z,101404.47
2022-12-19T04:51:58.091Z,101415.28
2022-12-19T04:54:25.112Z,101406.78
2022-12-19T04:56:52.894Z,101420.44
2022-12-19T04:59:19.226Z,101420.47
2022-12-19T05:01:45.650Z,101426.34
2022-12-19T05:04:12.029Z,101413.72
2022-12-19T05:06:38.314Z,101414.25
2022-12-19T05:09:05.039Z,101413.59
2022-12-19T05:11:31.422Z,101424.88
2022-12-19T05:13:59.369Z,101410.31
2022-12-19T05:16:25.748Z,101399.81
2022-12-19T05:18:53.508Z,101406.91
2022-12-19T05:21:21.243Z,101392.72
2022-12-19T05:23:49.525Z,101391.59
2022-12-19T05:26:15.910Z,101401.41
2022-12-19T05:28:42.199Z,101396.56
2022-12-19T05:31:15.763Z,101393.00
2022-12-19T05:33:42.828Z,101397.97
2022-12-19T05:36:10.403Z,101403.19
2022-12-19T05:38:37.060Z,101385.44
2022-12-19T05:41:08.205Z,101392.09
2022-12-19T05:43:34.543Z,101381.81
2022-12-19T05:46:00.956Z,101393.09
2022-12-19T05:48:27.256Z,101385.66
2022-12-19T05:50:53.554Z,101399.34
2022-12-19T05:53:24.641Z,101398.66
2022-12-19T05:55:52.375Z,101402.72
2022-12-19T05:58:21.706Z,101400.69
2022-12-19T06:00:48.080Z,101400.47
2022-12-19T06:03:14.527Z,101401.72
2022-12-19T06:05:41.012Z,101402.16
2022-12-19T06:08:07.754Z,101403.28
2022-12-19T06:10:34.262Z,101405.91
2022-12-19T06:13:00.623Z,101408.03
2022-12-19T06:15:27.677Z,101403.22
2022-12-19T06:17:54.808Z,101403.22
2022-12-19T06:20:21.137Z,101406.84
2022-12-19T06:22:47.397Z,101416.06
2022-12-19T06:25:13.690Z,101415.31
2022-12-19T06:27:39.982Z,101409.50
2022-12-19T06:30:06.849Z,101424.25
2022-12-19T06:32:38.201Z,101426.63
2022-12-19T06:35:05.460Z,101423.66
2022-12-19T06:37:31.754Z,101416.19
2022-12-19T06:39:58.061Z,101418.78
2022-12-19T06:42:24.547Z,101399.56
2022-12-19T06:44:53.606Z,101402.78
2022-12-19T06:47:22.329Z,101391.78
2022-12-19T06:49:50.099Z,101410.91
2022-12-19T06:52:16.658Z,101419.28
2022-12-19T06:54:42.951Z,101409.84
2022-12-19T06:57:09.354Z,101397.56
2022-12-19T06:59:35.643Z,101366.00
2022-12-19T07:02:13.581Z,101403.66
2022-12-19T07:04:48.968Z,101389.31
2022-12-19T07:07:15.309Z,101394.72
2022-12-19T07:09:41.643Z,101392.13
2022-12-19T07:12:08.069Z,101392.13
2022-12-19T07:14:34.344Z,101381.63
2022-12-19T07:17:01.812Z,101388.94
2022-12-19T07:19:30.003Z,101398.81
2022-12-19T07:21:56.405Z,101394.38
2022-12-19T07:24:22.927Z,101399.59
2022-12-19T07:26:49.591Z,101400.59
2022-12-19T07:29:15.954Z,101404.13
2022-12-19T07:31:42.280Z,101401.28
2022-12-19T07:34:08.735Z,101395.97
2022-12-19T07:36:35.116Z,101394.47
2022-12-19T07:39:01.417Z,101406.47
2022-12-19T07:41:27.755Z,101404.78
2022-12-19T07:43:54.037Z,101400.97
2022-12-19T07:46:21.616Z,101406.16
2022-12-19T07:48:48.054Z,101397.78
2022-12-19T07:51:14.298Z,101386.78
2022-12-19T07:53:40.597Z,101398.34
2022-12-19T07:56:07.422Z,101397.69
2022-12-19T07:58:34.237Z,101403.31
2022-12-19T08:01:03.590Z,101414.53
2022-12-19T08:03:29.929Z,101409.00
2022-12-19T08:06:04.150Z,101419.25
2022-12-19T08:08:31.057Z,101410.09
2022-12-19T08:11:10.779Z,101409.41
2022-12-19T08:13:43.158Z,101407.38
2022-12-19T08:16:12.459Z,101415.97
2022-12-19T08:18:38.765Z,101412.47
2022-12-19T08:21:05.355Z,101400.38
2022-12-19T08:23:32.795Z,101400.22
2022-12-19T08:26:04.054Z,101405.91
2022-12-19T08:28:32.409Z,101397.88
2022-12-19T08:31:05.199Z,101385.72
2022-12-19T08:33:31.532Z,101390.25
2022-12-19T08:35:57.937Z,101385.72
2022-12-19T08:38:24.195Z,101391.25
2022-12-19T08:40:54.449Z,101386.06
2022-12-19T08:43:21.436Z,101391.16
2022-12-19T08:45:49.955Z,101385.41
2022-12-19T08:48:17.024Z,101389.00
2022-12-19T08:50:53.872Z,101389.38
2022-12-19T08:53:26.045Z,101397.72
2022-12-19T08:55:57.120Z,101390.81
2022-12-19T08:58:24.479Z,101394.97
2022-12-19T09:00:57.553Z,101377.00
2022-12-19T09:03:25.663Z,101388.88
2022-12-19T09:06:07.884Z,101383.78
2022-12-19T09:08:37.782Z,101391.38
2022-12-19T09:11:13.291Z,101375.97
2022-12-19T09:13:41.502Z,101383.06
2022-12-19T09:16:10.402Z,101389.75
2022-12-19T09:18:36.767Z,101377.88
2022-12-19T09:21:03.161Z,101381.84
2022-12-19T09:23:34.708Z,101379.25
2022-12-19T09:26:07.598Z,101385.47
2022-12-19T09:28:34.972Z,101385.56
2022-12-19T09:31:04.174Z,101392.69
2022-12-19T09:33:38.001Z,101382.03
2022-12-19T09:36:11.410Z,101393.97
2022-12-19T09:38:38.101Z,101380.84
2022-12-19T09:41:16.420Z,101373.34
2022-12-19T09:44:14.017Z,101387.16
2022-12-19T09:46:56.264Z,101381.97
2022-12-19T09:49:29.824Z,101382.25
2022-12-19T09:51:59.518Z,101376.03
2022-12-19T09:54:35.932Z,101384.75
2022-12-19T09:57:13.428Z,101386.13
2022-12-19T09:59:51.951Z,101373.00
2022-12-19T10:02:39.046Z,101377.41
2022-12-19T10:05:46.896Z,101368.78
2022-12-19T10:08:26.263Z,101353.50
2022-12-19T10:11:06.062Z,101344.91
2022-12-19T10:14:17.217Z,101349.56
2022-12-19T10:17:22.513Z,101346.06
2022-12-19T10:20:03.011Z,101341.47
2022-12-19T10:23:09.656Z,101343.28
2022-12-19T10:26:03.308Z,101340.78
2022-12-19T10:29:05.974Z,101333.34
2022-12-19T10:31:56.382Z,101335.53
2022-12-19T10:34:29.884Z,101336.66
2022-12-19T10:37:29.014Z,101353.00
2022-12-19T10:40:28.912Z,101349.59
2022-12-19T10:42:58.491Z,101335.88
2022-12-19T10:45:37.058Z,101342.69
2022-12-19T10:48:04.520Z,101339.38
2022-12-19T10:50:30.886Z,101325.66
2022-12-19T10:53:08.245Z,101332.88
2022-12-19T10:55:34.726Z,101319.78
2022-12-19T10:58:12.480Z,101319.38
2022-12-19T11:00:47.026Z,101318.06
2022-12-19T11:03:19.014Z,101321.50
2022-12-19T11:05:57.501Z,101320.38
2022-12-19T11:08:29.528Z,101311.38
2022-12-19T11:13:32.964Z,101296.13
2022-12-19T11:19:22.166Z,101295.50
2022-12-19T11:21:27.032Z,101303.22
2022-12-19T11:29:39.757Z,101302.78
2022-12-19T11:29:54.531Z,101296.25
2022-12-19T11:30:05.574Z,101272.19
2022-12-19T11:30:45.890Z,101289.56
2022-12-19T11:34:04.900Z,101291.44
2022-12-19T11:36:41.434Z,101285.91
2022-12-19T11:39:21.975Z,101280.59
2022-12-19T11:42:23.285Z,101280.09
2022-12-19T11:45:05.964Z,101277.28
2022-12-19T11:47:52.728Z,101270.94
2022-12-19T11:50:28.907Z,101272.38
2022-12-19T11:53:09.362Z,101270.75
2022-12-19T11:55:43.804Z,101273.84
2022-12-19T11:58:11.638Z,101274.03
2022-12-19T12:00:46.157Z,101264.91
2022-12-19T12:03:24.483Z,101268.81
2022-12-19T12:05:51.667Z,101261.88
2022-12-19T12:11:20.665Z,101263.16
2022-12-19T12:19:33.848Z,101252.44
2022-12-19T12:24:56.213Z,101240.94
2022-12-19T12:31:09.555Z,101249.53
2022-12-19T12:31:14.156Z,101253.09
2022-12-19T12:31:49.208Z,101222.06
2022-12-19T12:31:53.739Z,101227.91
2022-12-19T12:31:57.030Z,101229.09
2022-12-19T12:37:05.218Z,101230.34
2022-12-19T12:40:07.975Z,101223.63
2022-12-19T12:42:52.990Z,101228.47
2022-12-19T12:45:22.009Z,101236.09
2022-12-19T12:47:51.915Z,101231.19
2022-12-19T12:50:21.218Z,101231.91
2022-12-19T12:52:51.228Z,101224.28
2022-12-19T12:55:26.480Z,101225.13
2022-12-19T12:57:52.888Z,101223.56
2022-12-19T13:00:23.986Z,101208.81
2022-12-19T13:03:07.169Z,101218.53
2022-12-19T13:05:53.656Z,101208.28
2022-12-19T13:08:31.037Z,101213.00
2022-12-19T13:11:00.481Z,101189.50
2022-12-19T13:13:50.653Z,101203.66
2022-12-19T13:16:42.840Z,101211.91
2022-12-19T13:19:28.493Z,101197.47
2022-12-19T13:22:04.371Z,101204.97
2022-12-19T13:24:48.084Z,101201.88
2022-12-19T13:27:20.753Z,101198.91
2022-12-19T13:30:00.983Z,101191.63
2022-12-19T13:32:40.896Z,101193.59
2022-12-19T13:35:56.522Z,101198.09
2022-12-19T13:39:52.265Z,101200.44
2022-12-19T13:41:23.271Z,101194.69
2022-12-19T13:43:49.685Z,101201.41
2022-12-19T13:46:30.983Z,101197.88
2022-12-19T13:49:05.643Z,101203.31
2022-12-19T13:51:51.904Z,101189.69
2022-12-19T13:54:28.239Z,101196.44
2022-12-19T13:56:59.202Z,101192.47
2022-12-19T13:59:33.130Z,101197.31
2022-12-19T14:02:07.634Z,101200.81
2022-12-19T14:04:34.141Z,101199.84
2022-12-19T14:07:03.660Z,101204.78
2022-12-19T14:11:26.683Z,101205.31
2022-12-19T14:14:00.209Z,101206.59
2022-12-19T14:15:37.305Z,101212.34
2022-12-19T14:18:42.688Z,101194.13
2022-12-19T14:22:05.276Z,101203.34
2022-12-19T14:24:23.296Z,101201.63
2022-12-19T14:28:24.350Z,101186.69
2022-12-19T14:30:28.446Z,101182.16
2022-12-19T14:33:22.155Z,101189.81
2022-12-19T14:36:06.106Z,101195.66
2022-12-19T14:39:20.291Z,101206.84
2022-12-19T14:42:01.745Z,101193.56
2022-12-19T14:51:51.833Z,101190.00
2022-12-19T14:54:05.829Z,101182.22
2022-12-19T14:54:18.171Z,101186.69
2022-12-19T14:54:29.349Z,101196.38
2022-12-19T14:56:29.062Z,101190.09
2022-12-19T14:58:57.632Z,101191.22
2022-12-19T15:01:27.860Z,101206.03
2022-12-19T15:04:47.813Z,101183.50
2022-12-19T15:07:08.449Z,101187.41
2022-12-19T15:11:00.328Z,101187.19
2022-12-19T15:14:48.490Z,101190.22
2022-12-19T15:15:52.898Z,101181.38
2022-12-19T15:18:27.319Z,101175.06
2022-12-19T15:20:56.442Z,101157.00
2022-12-19T15:23:23.424Z,101177.16
2022-12-19T15:26:07.907Z,101179.66
2022-12-19T15:28:47.871Z,101184.25
2022-12-19T15:31:36.122Z,101176.28
2022-12-19T15:34:39.134Z,101175.16
2022-12-19T15:37:13.027Z,101164.91
2022-12-19T15:39:40.108Z,101172.34
2022-12-19T15:42:17.150Z,101159.13
2022-12-19T15:44:43.803Z,101155.91
2022-12-19T15:47:33.103Z,101151.13
2022-12-19T15:50:02.802Z,101165.94
2022-12-19T15:52:29.903Z,101150.81
2022-12-19T15:54:58.911Z,101144.41
2022-12-19T15:57:33.654Z,101150.78
2022-12-19T16:00:02.417Z,101152.19
2022-12-19T16:03:12.742Z,101149.09
2022-12-19T16:05:19.688Z,101149.41
2022-12-19T16:07:46.825Z,101151.28
2022-12-19T16:10:14.184Z,101150.00
2022-12-19T16:12:45.157Z,101158.09
2022-12-19T16:15:24.618Z,101144.59
2022-12-19T16:17:51.078Z,101125.16
2022-12-19T16:20:22.881Z,101134.06
2022-12-19T16:22:49.617Z,101124.38
2022-12-19T16:25:16.107Z,101125.66
2022-12-19T16:27:43.330Z,101124.88
2022-12-19T16:30:18.852Z,101139.97
2022-12-19T16:32:46.060Z,101122.53
2022-12-19T16:35:40.328Z,101105.63
2022-12-19T16:38:08.526Z,101113.03
2022-12-19T16:40:34.880Z,101119.63
2022-12-19T16:43:12.536Z,101111.53
2022-12-19T16:45:38.913Z,101122.94
2022-12-19T16:48:24.097Z,101114.34
2022-12-19T16:50:50.986Z,101105.72
2022-12-19T16:53:17.747Z,101111.66
2022-12-19T16:55:45.612Z,101110.75
2022-12-19T16:58:16.520Z,101129.19
2022-12-19T17:00:42.915Z,101136.91
2022-12-19T17:03:25.758Z,101134.25
2022-12-19T17:05:52.170Z,101120.84
2022-12-19T17:08:18.881Z,101122.94
2022-12-19T17:10:46.263Z,101125.25
2022-12-19T17:13:14.393Z,101143.88
2022-12-19T17:15:42.836Z,101143.78
2022-12-19T17:18:15.838Z,101128.66
2022-12-19T17:20:43.929Z,101134.97
2022-12-19T17:23:18.729Z,101133.16
2022-12-19T17:25:45.439Z,101124.34
2022-12-19T17:28:12.911Z,101133.66
2022-12-19T17:30:41.258Z,101128.34
2022-12-19T17:33:13.692Z,101111.72
2022-12-19T17:35:39.988Z,101129.97
2022-12-19T17:38:06.457Z,101117.84
2022-12-19T17:40:34.035Z,101104.13
2022-12-19T17:43:00.449Z,101104.50
2022-12-19T17:45:29.455Z,101107.06
2022-12-19T17:48:02.905Z,101103.38
2022-12-19T17:50:35.164Z,101109.78
2022-12-19T17:53:01.490Z,101125.44
2022-12-19T17:55:29.466Z,101117.28
2022-12-19T17:57:56.182Z,101099.50
2022-12-19T18:00:30.072Z,101116.53
2022-12-19T18:03:00.389Z,101116.06
2022-12-19T18:05:35.984Z,101117.75
2022-12-19T18:08:03.623Z,101100.91
2022-12-19T18:10:31.862Z,101092.41
2022-12-19T18:12:58.353Z,101084.16
2022-12-19T18:15:25.437Z,101077.97
2022-12-19T18:17:53.301Z,101080.66
2022-12-19T18:20:31.168Z,101083.09
2022-12-19T18:22:59.533Z,101075.97
2022-12-19T18:25:31.339Z,101073.56
2022-12-19T18:27:58.209Z,101097.69
2022-12-19T18:30:25.633Z,101101.41
2022-12-19T18:32:56.365Z,101087.88
2022-12-19T18:35:29.493Z,101085.69
2022-12-19T18:37:59.505Z,101088.19
2022-12-19T18:40:31.391Z,101076.78
2022-12-19T18:42:58.714Z,101076.78
2022-12-19T18:45:30.632Z,101086.56
2022-12-19T18:47:59.613Z,101079.34
2022-12-19T18:50:28.368Z,101066.56
2022-12-19T18:52:55.278Z,101095.75
2022-12-19T18:55:27.713Z,101087.66
2022-12-19T18:57:55.229Z,101072.53
2022-12-19T19:00:24.721Z,101084.66
2022-12-19T19:02:55.316Z,101101.38
2022-12-19T19:05:25.522Z,101105.16
2022-12-19T19:07:52.038Z,101098.97
2022-12-19T19:10:25.217Z,101110.91
2022-12-19T19:12:51.934Z,101109.63
2022-12-19T19:15:22.771Z,101092.59
2022-12-19T19:17:55.835Z,101108.63
2022-12-19T19:20:22.170Z,101092.91
2022-12-19T19:22:48.946Z,101088.50
2022-12-19T19:25:15.467Z,101083.28
2022-12-19T19:27:41.778Z,101090.19
2022-12-19T19:30:10.089Z,101084.19
2022-12-19T19:32:39.046Z,101083.66
2022-12-19T19:35:08.084Z,101067.13
2022-12-19T19:37:34.780Z,101068.00
2022-12-19T19:40:01.140Z,101065.41
2022-12-19T19:42:27.435Z,101070.69
2022-12-19T19:44:53.865Z,101088.94
2022-12-19T19:47:28.153Z,101083.53
2022-12-19T19:49:56.052Z,101088.47
2022-12-19T19:52:22.426Z,101097.19
2022-12-19T19:54:48.740Z,101085.47
2022-12-19T19:57:15.046Z,101107.81
2022-12-19T19:59:41.377Z,101099.41
2022-12-19T20:02:08.638Z,101097.38
2022-12-19T20:04:36.116Z,101104.09
2022-12-19T20:07:02.670Z,101103.19
2022-12-19T20:09:29.010Z,101111.81
2022-12-19T20:11:56.044Z,101101.31
2022-12-19T20:14:22.839Z,101108.50
2022-12-19T20:16:50.303Z,101106.91
2022-12-19T20:19:16.630Z,101125.56
2022-12-19T20:21:43.239Z,101096.91
2022-12-19T20:24:09.518Z,101118.84
2022-12-19T20:26:36.240Z,101118.34
2022-12-19T20:29:03.120Z,101113.63
2022-12-19T20:31:31.050Z,101116.03
2022-12-19T20:33:57.402Z,101109.13
2022-12-19T20:36:25.014Z,101097.81
2022-12-19T20:38:51.927Z,101100.31
2022-12-19T20:41:18.359Z,101123.94
2022-12-19T20:43:45.031Z,101115.72
2022-12-19T20:46:14.099Z,101120.34
2022-12-19T20:48:41.364Z,101114.03
2022-12-19T20:51:08.411Z,101124.25
2022-12-19T20:53:36.272Z,101111.13
2022-12-19T20:56:04.072Z,101113.31
2022-12-19T20:58:33.165Z,101118.53
2022-12-19T21:01:08.894Z,101115.75
2022-12-19T21:03:36.402Z,101128.75
2022-12-19T21:06:03.923Z,101121.84
2022-12-19T21:08:30.344Z,101127.16
2022-12-19T21:10:59.306Z,101130.09
2022-12-19T21:13:25.688Z,101126.09
2022-12-19T21:15:53.471Z,101119.78
2022-12-19T21:18:20.166Z,101109.88
2022-12-19T21:20:47.274Z,101119.38
2022-12-19T21:23:14.042Z,101121.88
2022-12-19T21:25:40.510Z,101122.97
2022-12-19T21:28:07.252Z,101110.34
2022-12-19T21:30:35.828Z,101131.09
2022-12-19T21:33:02.598Z,101133.00
2022-12-19T21:35:28.932Z,101128.31
2022-12-19T21:37:55.247Z,101130.06
2022-12-19T21:40:22.153Z,101134.56
2022-12-19T21:42:48.509Z,101130.78
2022-12-19T21:45:15.183Z,101125.66
2022-12-19T21:47:42.855Z,101123.06
2022-12-19T21:50:11.634Z,101128.88
2022-12-19T21:52:37.995Z,101115.44
2022-12-19T21:55:06.216Z,101110.22
2022-12-19T21:57:32.543Z,101112.75
2022-12-19T21:59:58.835Z,101115.16
2022-12-19T22:02:25.176Z,101124.56
2022-12-19T22:04:51.666Z,101118.22
2022-12-19T22:07:18.050Z,101119.25
2022-12-19T22:09:44.336Z,101101.41
2022-12-19T22:12:12.749Z,101105.13
2022-12-19T22:14:39.194Z,101096.75
2022-12-19T22:17:05.575Z,101115.41
2022-12-19T22:19:31.915Z,101085.72
2022-12-19T22:21:58.240Z,101100.97
2022-12-19T22:24:24.689Z,101084.63
2022-12-19T22:26:51.049Z,101090.47
2022-12-19T22:29:17.618Z,101097.56
2022-12-19T22:31:45.591Z,101101.59
2022-12-19T22:34:15.166Z,101096.16
2022-12-19T22:36:42.995Z,101091.94
2022-12-19T22:39:12.333Z,101093.44
2022-12-19T22:41:40.015Z,101084.72
2022-12-19T22:44:07.425Z,101083.31
2022-12-19T22:46:37.179Z,101080.00
2022-12-19T22:49:06.807Z,101079.50
2022-12-19T22:51:34.137Z,101080.41
2022-12-19T22:54:01.123Z,101080.13
2022-12-19T22:56:30.101Z,101064.97
2022-12-19T22:59:01.413Z,101078.13
2022-12-19T23:01:30.328Z,101081.72
2022-12-19T23:03:58.590Z,101070.94
2022-12-19T23:06:26.966Z,101078.56
2022-12-19T23:08:53.780Z,101066.94
2022-12-19T23:11:24.368Z,101073.69
2022-12-19T23:13:51.089Z,101083.22
2022-12-19T23:16:18.016Z,101065.06
2022-12-19T23:18:44.423Z,101061.56
2022-12-19T23:21:17.231Z,101074.91
2022-12-19T23:23:45.256Z,101072.31
2022-12-19T23:26:16.088Z,101067.84
2022-12-19T23:28:44.205Z,101079.88
2022-12-19T23:31:13.590Z,101069.84
2022-12-19T23:33:41.115Z,101066.09
2022-12-19T23:36:08.133Z,101066.47
2022-12-19T23:38:34.498Z,101061.88
2022-12-19T23:41:12.899Z,101051.09
2022-12-19T23:43:40.098Z,101059.13
2022-12-19T23:46:07.372Z,101059.44
2022-12-19T23:48:33.910Z,101042.53
2022-12-19T23:51:02.583Z,101064.63
2022-12-19T23:53:30.567Z,101052.13
2022-12-19T23:55:57.223Z,101034.94
2022-12-19T23:58:24.844Z,101035.94
